Time;durP1;ratioP1;P1;durP2;ratioP2;P2;SDS_P1;SDS_P2;PMS_P1;PMS_P2;Temp;Humidity;BMP_temperature;BMP_pressure;BME280_temperature;BME280_humidity;BME280_pressure;Samples;Min_cycle;Max_cycle;Signal;HPM_P1;HPM_P2
2023/06/10 00:00:06;;;;;;;;;;;;;;;17.95;54.22;97728.00;5052960;28;19932;-67
2023/06/10 00:02:42;;;;;;;;;;;;;;;18.03;54.14;97729.75;5070065;28;19927;-60
2023/06/10 00:05:10;;;;;;;;;;;;;;;17.97;54.31;97729.25;5102685;28;19920;-58
2023/06/10 00:07:41;;;;;;;;;;;;;;;17.83;54.92;97731.72;5072601;28;19924;-58
2023/06/10 00:10:10;;;;;;;;;;;;;;;17.74;55.32;97731.97;5068058;28;20075;-58
2023/06/10 00:12:38;;;;;;;;;;;;;;;17.76;55.08;97720.59;5081550;28;19925;-58
2023/06/10 00:15:07;;;;;;;;;;;;;;;17.72;55.01;97726.00;5047917;28;19921;-62
2023/06/10 00:17:38;;;;;;;;;;;;;;;17.65;55.37;97731.34;5103658;28;19920;-58
2023/06/10 00:20:10;;;;;;;;;;;;;;;17.65;55.76;97725.84;5068859;28;20015;-58
2023/06/10 00:22:41;;;;;;;;;;;;;;;17.63;55.70;97728.19;5066488;28;19968;-58
2023/06/10 00:25:10;;;;;;;;;;;;;;;17.64;55.87;97729.75;5064083;28;19960;-58
2023/06/10 00:27:38;;;;;;;;;;;;;;;17.61;55.88;97727.72;5069022;28;20376;-63
2023/06/10 00:30:07;;;;;;;;;;;;;;;17.51;56.04;97728.31;5065032;28;19944;-62
2023/06/10 00:32:35;;;;;;;;;;;;;;;17.46;56.25;97723.09;5105495;28;19924;-59
2023/06/10 00:35:03;;;;;;;;;;;;;;;17.47;56.39;97735.66;5073650;28;19920;-58
2023/06/10 00:37:32;;;;;;;;;;;;;;;17.38;56.83;97730.41;5058808;28;19928;-60
2023/06/10 00:40:01;;;;;;;;;;;;;;;17.36;56.60;97735.44;5082849;28;19983;-58
2023/06/10 00:42:28;;;;;;;;;;;;;;;17.28;56.99;97725.47;5089831;28;19932;-58
2023/06/10 00:44:56;;;;;;;;;;;;;;;17.31;56.91;97729.44;5071759;28;20454;-58
2023/06/10 00:47:24;;;;;;;;;;;;;;;17.37;57.06;97722.53;5099988;28;19921;-62
2023/06/10 00:49:52;;;;;;;;;;;;;;;17.38;57.19;97724.13;5102853;28;19927;-60
2023/06/10 00:52:20;;;;;;;;;;;;;;;17.31;57.25;97721.19;5096573;28;20010;-59
2023/06/10 00:54:48;;;;;;;;;;;;;;;17.37;56.99;97726.06;5068263;28;19932;-58
2023/06/10 00:57:17;;;;;;;;;;;;;;;17.30;57.05;97728.66;5070906;28;20023;-58
2023/06/10 00:59:47;;;;;;;;;;;;;;;17.28;57.39;97723.53;5061470;28;19924;-58
2023/06/10 01:02:15;;;;;;;;;;;;;;;17.24;57.47;97722.66;5057393;28;20272;-58
2023/06/10 01:04:42;;;;;;;;;;;;;;;17.09;57.93;97720.75;5072108;28;19927;-58
2023/06/10 01:07:12;;;;;;;;;;;;;;;17.00;58.40;97720.16;5056751;28;19921;-58
2023/06/10 01:09:41;;;;;;;;;;;;;;;16.99;58.36;97715.81;5064360;28;20020;-59
2023/06/10 01:12:11;;;;;;;;;;;;;;;17.07;58.05;97717.56;5077854;28;19924;-58
2023/06/10 01:14:44;;;;;;;;;;;;;;;17.07;58.32;97717.56;5069024;28;20006;-58
2023/06/10 01:17:12;;;;;;;;;;;;;;;17.05;58.13;97713.59;5096334;28;19921;-58
2023/06/10 01:19:43;;;;;;;;;;;;;;;17.13;58.59;97715.34;5069153;28;19952;-60
2023/06/10 01:22:15;;;;;;;;;;;;;;;17.15;58.20;97719.34;5091276;28;19921;-58
2023/06/10 01:24:44;;;;;;;;;;;;;;;16.94;58.66;97724.34;5070212;28;19932;-59
2023/06/10 01:27:14;;;;;;;;;;;;;;;16.99;58.87;97718.56;5073302;28;19959;-58
2023/06/10 01:29:42;;;;;;;;;;;;;;;17.14;58.46;97717.72;5101325;28;19971;-58
2023/06/10 01:32:13;;;;;;;;;;;;;;;17.05;58.98;97719.09;5066148;28;19925;-58
2023/06/10 01:34:42;;;;;;;;;;;;;;;16.96;59.57;97722.81;5073998;28;20392;-59
2023/06/10 01:37:10;;;;;;;;;;;;;;;16.93;59.46;97717.25;5089542;28;20019;-58
2023/06/10 01:39:41;;;;;;;;;;;;;;;16.93;59.66;97722.72;5072206;28;20023;-58
2023/06/10 01:42:09;;;;;;;;;;;;;;;16.87;59.55;97719.47;5078515;28;19924;-59
2023/06/10 01:44:38;;;;;;;;;;;;;;;17.02;59.60;97723.34;5072021;28;19997;-58
2023/06/10 01:47:08;;;;;;;;;;;;;;;17.02;59.48;97723.34;5067750;28;20369;-57
2023/06/10 01:49:36;;;;;;;;;;;;;;;17.07;59.96;97723.06;5104697;28;19920;-59
2023/06/10 01:52:04;;;;;;;;;;;;;;;17.03;59.49;97722.19;5081054;28;19921;-59
2023/06/10 01:54:34;;;;;;;;;;;;;;;16.93;60.50;97723.53;5082377;28;19927;-58
2023/06/10 01:57:03;;;;;;;;;;;;;;;16.97;60.62;97723.63;5089172;28;19927;-59
2023/06/10 01:59:32;;;;;;;;;;;;;;;16.88;60.97;97729.28;5095846;27;19963;-59
2023/06/10 02:02:02;;;;;;;;;;;;;;;16.90;61.03;97731.69;5093765;28;20369;-58
2023/06/10 02:04:55;;;;;;;;;;;;;;;16.92;60.48;97732.13;5074076;28;19926;-63
2023/06/10 02:07:27;;;;;;;;;;;;;;;16.93;60.97;97726.28;5084162;28;19939;-59
2023/06/10 02:09:55;;;;;;;;;;;;;;;16.92;61.15;97721.16;5091960;28;19920;-65
2023/06/10 02:12:24;;;;;;;;;;;;;;;16.82;61.79;97721.69;5072811;28;19955;-58
2023/06/10 02:14:52;;;;;;;;;;;;;;;16.83;61.36;97724.09;5066149;28;19928;-58
2023/06/10 02:17:20;;;;;;;;;;;;;;;16.66;62.07;97719.72;5075391;28;20350;-58
2023/06/10 02:19:52;;;;;;;;;;;;;;;16.63;61.97;97717.72;5072607;28;19943;-59
2023/06/10 02:22:21;;;;;;;;;;;;;;;16.62;62.68;97718.88;5094702;28;19920;-59
2023/06/10 02:24:49;;;;;;;;;;;;;;;16.67;62.26;97715.88;5099450;28;19920;-58
2023/06/10 02:27:18;;;;;;;;;;;;;;;16.68;62.19;97717.44;5064574;28;20023;-58
2023/06/10 02:29:49;;;;;;;;;;;;;;;16.63;62.50;97711.44;5103085;28;20019;-59
2023/06/10 02:32:16;;;;;;;;;;;;;;;16.79;62.17;97722.41;5064240;28;19927;-58
2023/06/10 02:34:45;;;;;;;;;;;;;;;16.73;62.13;97714.47;5071952;28;19925;-58
2023/06/10 02:37:14;;;;;;;;;;;;;;;16.61;62.43;97728.22;5083554;28;19920;-58
2023/06/10 02:39:42;;;;;;;;;;;;;;;16.53;62.75;97726.47;5084541;28;20023;-58
2023/06/10 02:42:12;;;;;;;;;;;;;;;16.55;62.34;97726.13;5062013;28;20396;-59
2023/06/10 02:44:40;;;;;;;;;;;;;;;16.48;61.65;97730.28;5054224;28;19928;-58
2023/06/10 02:47:13;;;;;;;;;;;;;;;16.41;62.04;97729.31;5095079;28;19920;-58
2023/06/10 02:49:41;;;;;;;;;;;;;;;16.23;62.04;97728.84;5070157;28;19920;-58
2023/06/10 02:52:11;;;;;;;;;;;;;;;16.25;61.91;97732.06;5097040;28;19966;-60
2023/06/10 02:54:39;;;;;;;;;;;;;;;16.19;62.21;97738.91;5097757;28;20246;-58
2023/06/10 02:57:09;;;;;;;;;;;;;;;16.24;62.26;97736.75;5074174;28;19920;-59
2023/06/10 02:59:37;;;;;;;;;;;;;;;16.35;62.45;97737.03;5103057;28;19920;-60
2023/06/10 03:02:05;;;;;;;;;;;;;;;16.38;62.34;97736.28;5067513;28;20367;-58
2023/06/10 03:04:43;;;;;;;;;;;;;;;16.33;62.49;97736.56;5074242;28;19928;-58
2023/06/10 03:07:15;;;;;;;;;;;;;;;16.38;62.58;97740.97;5084056;28;19999;-58
2023/06/10 03:09:42;;;;;;;;;;;;;;;16.38;62.42;97732.75;5078384;28;19975;-57
2023/06/10 03:12:13;;;;;;;;;;;;;;;16.28;63.34;97730.53;5063905;28;19952;-60
2023/06/10 03:14:46;;;;;;;;;;;;;;;16.38;63.42;97735.50;5046455;28;20309;-58
2023/06/10 03:17:15;;;;;;;;;;;;;;;16.33;63.34;97731.06;5026537;28;19949;-58
2023/06/10 03:19:46;;;;;;;;;;;;;;;16.44;63.51;97734.09;5063100;28;20282;-58
2023/06/10 03:22:14;;;;;;;;;;;;;;;16.45;63.56;97730.97;5024682;28;19929;-61
2023/06/10 03:25:13;;;;;;;;;;;;;;;16.40;63.77;97741.41;5030628;28;19921;-60
2023/06/10 03:27:44;;;;;;;;;;;;;;;16.35;63.23;97734.28;5057313;28;19925;-58
2023/06/10 03:30:13;;;;;;;;;;;;;;;16.42;63.16;97737.19;5056150;28;20011;-58
2023/06/10 03:32:43;;;;;;;;;;;;;;;16.40;63.46;97744.16;5075099;28;19921;-58
2023/06/10 03:35:14;;;;;;;;;;;;;;;16.31;63.33;97732.59;5065794;28;20381;-58
2023/06/10 03:37:42;;;;;;;;;;;;;;;16.36;63.35;97735.06;5051549;28;20305;-62
2023/06/10 03:40:11;;;;;;;;;;;;;;;16.32;63.60;97742.41;5047321;28;19925;-58
2023/06/10 03:42:43;;;;;;;;;;;;;;;16.20;64.38;97735.84;5042840;28;20342;-58
2023/06/10 03:45:17;;;;;;;;;;;;;;;16.29;64.35;97743.09;5045221;28;19952;-58
2023/06/10 03:47:47;;;;;;;;;;;;;;;16.25;64.67;97737.53;5049994;28;19971;-58
2023/06/10 03:50:23;;;;;;;;;;;;;;;16.43;64.21;97732.50;5050146;28;19931;-59
2023/06/10 03:52:51;;;;;;;;;;;;;;;16.50;64.09;97733.47;5040449;28;19956;-67
2023/06/10 03:55:23;;;;;;;;;;;;;;;16.56;64.10;97741.41;5051468;28;19959;-58
2023/06/10 03:57:51;;;;;;;;;;;;;;;16.41;64.47;97737.53;5073548;28;19929;-58
2023/06/10 04:00:21;;;;;;;;;;;;;;;16.52;64.72;97733.13;5047536;28;19921;-65
2023/06/10 04:02:51;;;;;;;;;;;;;;;16.47;64.85;97736.91;5048861;28;19971;-64
2023/06/10 04:05:30;;;;;;;;;;;;;;;16.49;64.70;97737.34;5058774;28;19931;-58
2023/06/10 04:07:58;;;;;;;;;;;;;;;16.58;64.64;97739.13;5067931;28;20011;-61
2023/06/10 04:10:26;;;;;;;;;;;;;;;16.66;64.68;97738.13;5069762;28;20003;-58
2023/06/10 04:12:54;;;;;;;;;;;;;;;16.57;64.51;97743.03;5071812;28;19921;-67
2023/06/10 04:15:25;;;;;;;;;;;;;;;16.43;64.92;97740.72;5090401;28;19924;-58
2023/06/10 04:17:53;;;;;;;;;;;;;;;16.47;64.93;97736.13;5087221;28;19921;-58
2023/06/10 04:20:23;;;;;;;;;;;;;;;16.48;64.90;97752.22;5071193;28;19920;-58
2023/06/10 04:22:53;;;;;;;;;;;;;;;16.37;64.87;97745.69;5063892;28;20262;-58
2023/06/10 04:25:22;;;;;;;;;;;;;;;16.35;64.71;97747.97;5071493;28;20015;-58
2023/06/10 04:27:50;;;;;;;;;;;;;;;16.50;64.57;97744.41;5077991;28;19927;-58
2023/06/10 04:30:18;;;;;;;;;;;;;;;16.64;64.06;97744.00;5064228;28;19920;-58
2023/06/10 04:32:46;;;;;;;;;;;;;;;16.65;63.93;97740.09;5070021;28;19921;-58
2023/06/10 04:35:16;;;;;;;;;;;;;;;16.74;63.85;97753.66;5079377;28;20412;-58
2023/06/10 04:37:45;;;;;;;;;;;;;;;16.75;64.24;97745.06;5075699;28;19925;-58
2023/06/10 04:40:15;;;;;;;;;;;;;;;16.71;63.88;97746.13;5100500;28;19927;-58
2023/06/10 04:42:43;;;;;;;;;;;;;;;16.70;64.11;97742.56;5064003;28;20421;-58
2023/06/10 04:45:11;;;;;;;;;;;;;;;16.69;64.31;97743.72;5097277;28;19925;-58
2023/06/10 04:47:40;;;;;;;;;;;;;;;16.86;63.74;97745.31;5084597;28;19920;-60
2023/06/10 04:50:08;;;;;;;;;;;;;;;16.96;63.19;97739.28;5064451;28;20293;-58
2023/06/10 04:52:36;;;;;;;;;;;;;;;17.02;63.38;97739.81;5075415;28;20020;-58
2023/06/10 04:55:05;;;;;;;;;;;;;;;16.98;63.18;97747.94;5072134;28;21316;-58
2023/06/10 04:57:34;;;;;;;;;;;;;;;17.13;62.73;97748.28;5071168;28;19943;-58
2023/06/10 05:00:05;;;;;;;;;;;;;;;17.20;62.72;97738.25;5067469;28;19948;-67
2023/06/10 05:02:33;;;;;;;;;;;;;;;17.31;62.41;97745.91;5073149;28;19971;-60
2023/06/10 05:05:00;;;;;;;;;;;;;;;17.36;62.51;97748.38;5077319;28;19979;-59
2023/06/10 05:07:28;;;;;;;;;;;;;;;17.35;61.89;97746.78;5068325;28;19967;-58
2023/06/10 05:09:56;;;;;;;;;;;;;;;17.31;62.38;97754.16;5098741;28;20255;-58
2023/06/10 05:12:24;;;;;;;;;;;;;;;17.36;62.23;97751.13;5062048;28;19976;-58
2023/06/10 05:14:53;;;;;;;;;;;;;;;17.40;62.56;97754.75;5069416;28;20200;-58
2023/06/10 05:17:21;;;;;;;;;;;;;;;17.53;61.63;97753.47;5066911;28;20263;-57
2023/06/10 05:19:49;;;;;;;;;;;;;;;17.51;61.78;97758.50;5072797;28;19927;-58
2023/06/10 05:22:17;;;;;;;;;;;;;;;17.56;61.70;97758.22;5073398;28;20260;-58
2023/06/10 05:24:45;;;;;;;;;;;;;;;17.68;61.69;97760.81;5063120;28;19933;-58
2023/06/10 05:27:13;;;;;;;;;;;;;;;17.72;61.89;97758.16;5070633;28;19920;-57
2023/06/10 05:29:41;;;;;;;;;;;;;;;17.67;61.17;97755.69;5072414;28;20019;-58
2023/06/10 05:32:10;;;;;;;;;;;;;;;17.72;61.55;97761.72;5062171;28;19920;-58
2023/06/10 05:34:38;;;;;;;;;;;;;;;17.83;61.46;97766.66;5064838;28;19920;-62
2023/06/10 05:37:06;;;;;;;;;;;;;;;17.95;61.38;97766.50;5070702;28;20008;-59
2023/06/10 05:39:37;;;;;;;;;;;;;;;17.90;61.12;97772.31;5072545;28;19921;-58
2023/06/10 05:42:06;;;;;;;;;;;;;;;17.98;60.75;97771.28;5072822;28;19921;-58
2023/06/10 05:44:34;;;;;;;;;;;;;;;18.00;61.17;97766.19;5079342;28;19920;-58
2023/06/10 05:47:01;;;;;;;;;;;;;;;18.13;60.47;97764.09;5063546;28;19920;-58
2023/06/10 05:49:31;;;;;;;;;;;;;;;18.12;60.73;97766.06;5061891;28;20015;-58
2023/06/10 05:51:59;;;;;;;;;;;;;;;18.15;61.00;97768.06;5068385;28;19966;-58
2023/06/10 05:54:26;;;;;;;;;;;;;;;18.25;60.73;97770.22;5067730;28;20458;-57
2023/06/10 05:56:56;;;;;;;;;;;;;;;18.17;61.17;97767.72;5067305;28;19921;-58
2023/06/10 05:59:24;;;;;;;;;;;;;;;18.36;60.82;97764.13;5070310;28;19960;-60
2023/06/10 06:01:52;;;;;;;;;;;;;;;18.46;59.96;97758.00;5047592;28;20023;-58
2023/06/10 06:04:20;;;;;;;;;;;;;;;18.56;60.15;97755.44;5068378;28;20266;-58
2023/06/10 06:06:49;;;;;;;;;;;;;;;18.71;59.30;97764.75;5083344;28;20454;-61
2023/06/10 06:09:17;;;;;;;;;;;;;;;18.70;59.77;97763.16;5089874;28;20374;-59
2023/06/10 06:11:45;;;;;;;;;;;;;;;18.93;58.79;97759.59;5083954;28;19924;-58
2023/06/10 06:14:12;;;;;;;;;;;;;;;18.78;59.45;97759.34;5086547;28;19932;-59
2023/06/10 06:16:40;;;;;;;;;;;;;;;18.88;59.63;97762.66;5069371;28;19970;-58
2023/06/10 06:19:09;;;;;;;;;;;;;;;18.92;60.38;97764.31;5085814;28;19955;-58
2023/06/10 06:21:37;;;;;;;;;;;;;;;19.16;59.30;97760.31;5094811;27;20414;-58
2023/06/10 06:24:07;;;;;;;;;;;;;;;19.28;58.92;97764.81;5086988;28;19939;-58
2023/06/10 06:26:35;;;;;;;;;;;;;;;19.30;58.77;97763.28;5081989;28;19920;-58
2023/06/10 06:29:02;;;;;;;;;;;;;;;19.34;58.68;97763.34;5083669;28;19970;-59
2023/06/10 06:31:30;;;;;;;;;;;;;;;19.49;57.92;97758.81;5079049;28;19942;-59
2023/06/10 06:33:58;;;;;;;;;;;;;;;19.61;57.19;97755.84;5092844;28;19979;-58
2023/06/10 06:36:26;;;;;;;;;;;;;;;19.52;58.36;97758.84;5091926;28;19981;-58
2023/06/10 06:38:54;;;;;;;;;;;;;;;19.82;56.81;97760.84;5089719;28;19932;-58
2023/06/10 06:41:25;;;;;;;;;;;;;;;19.87;56.56;97764.06;5080043;28;19924;-58
2023/06/10 06:43:54;;;;;;;;;;;;;;;19.94;56.32;97760.59;5081998;28;19932;-58
2023/06/10 06:46:30;;;;;;;;;;;;;;;20.03;54.66;97768.56;5086709;28;20034;-62
2023/06/10 06:48:58;;;;;;;;;;;;;;;20.23;53.08;97758.13;5087982;28;19920;-58
2023/06/10 06:51:25;;;;;;;;;;;;;;;20.24;53.94;97756.94;5086961;28;19927;-61
2023/06/10 06:53:56;;;;;;;;;;;;;;;20.32;54.88;97764.13;5082287;28;19924;-63
2023/06/10 06:56:26;;;;;;;;;;;;;;;20.45;52.33;97770.16;5092648;28;19920;-65
2023/06/10 06:58:54;;;;;;;;;;;;;;;20.37;52.65;97758.28;5090116;28;19973;-68
2023/06/10 07:01:26;;;;;;;;;;;;;;;20.49;52.21;97771.03;5077609;28;20366;-62
2023/06/10 07:03:54;;;;;;;;;;;;;;;20.58;53.75;97766.00;5066481;28;19928;-64
2023/06/10 07:06:22;;;;;;;;;;;;;;;20.89;51.91;97772.97;5061508;28;20366;-61
2023/06/10 07:08:50;;;;;;;;;;;;;;;20.87;53.11;97769.78;5066796;28;19967;-63
2023/06/10 07:11:18;;;;;;;;;;;;;;;20.93;51.40;97771.81;5065586;28;20411;-61
2023/06/10 07:13:47;;;;;;;;;;;;;;;20.88;52.05;97765.84;5066959;28;19925;-62
2023/06/10 07:16:15;;;;;;;;;;;;;;;20.86;51.90;97768.19;5072128;28;19924;-61
2023/06/10 07:18:43;;;;;;;;;;;;;;;21.01;52.18;97774.63;5093522;28;19982;-61
2023/06/10 07:21:10;;;;;;;;;;;;;;;21.08;52.94;97778.22;5083145;28;19986;-61
2023/06/10 07:23:42;;;;;;;;;;;;;;;21.15;51.84;97769.19;5094195;28;19973;-63
2023/06/10 07:26:10;;;;;;;;;;;;;;;21.29;52.25;97774.00;5081607;28;19921;-61
2023/06/10 07:28:38;;;;;;;;;;;;;;;21.29;51.38;97769.28;5087714;28;19924;-61
2023/06/10 07:31:08;;;;;;;;;;;;;;;21.42;51.07;97776.09;5075201;28;20284;-61
2023/06/10 07:33:38;;;;;;;;;;;;;;;21.48;50.87;97765.47;5091056;28;20007;-62
2023/06/10 07:36:07;;;;;;;;;;;;;;;21.60;51.01;97778.97;5090435;28;19920;-61
2023/06/10 07:38:34;;;;;;;;;;;;;;;21.53;50.73;97778.16;5075009;28;19920;-63
2023/06/10 07:41:02;;;;;;;;;;;;;;;21.57;50.23;97773.41;5087934;28;20354;-61
2023/06/10 07:43:30;;;;;;;;;;;;;;;21.56;50.32;97774.59;5083671;28;19927;-61
2023/06/10 07:45:59;;;;;;;;;;;;;;;21.70;50.10;97778.22;5088524;28;19920;-62
2023/06/10 07:48:28;;;;;;;;;;;;;;;21.80;50.25;97776.69;5093046;28;19920;-61
2023/06/10 07:50:56;;;;;;;;;;;;;;;21.85;50.19;97776.31;5084039;28;19920;-62
2023/06/10 07:53:24;;;;;;;;;;;;;;;22.03;48.17;97768.06;5084966;28;19924;-62
2023/06/10 07:55:52;;;;;;;;;;;;;;;22.07;47.93;97773.63;5090817;28;19924;-61
2023/06/10 07:58:21;;;;;;;;;;;;;;;22.07;47.35;97773.63;5073643;28;20327;-61
2023/06/10 08:00:49;;;;;;;;;;;;;;;22.32;46.92;97771.75;5070223;28;20381;-61
2023/06/10 08:03:17;;;;;;;;;;;;;;;22.07;48.04;97770.84;5069216;28;19981;-61
2023/06/10 08:05:46;;;;;;;;;;;;;;;22.35;46.76;97768.19;5085976;28;19920;-61
2023/06/10 08:08:14;;;;;;;;;;;;;;;22.21;47.13;97768.97;5078917;28;19929;-61
2023/06/10 08:10:42;;;;;;;;;;;;;;;22.22;47.80;97767.78;5081144;28;19931;-61
2023/06/10 08:13:10;;;;;;;;;;;;;;;22.39;47.48;97769.00;5073567;28;19920;-61
2023/06/10 08:15:38;;;;;;;;;;;;;;;22.33;47.47;97767.00;5097230;28;19920;-61
2023/06/10 08:18:06;;;;;;;;;;;;;;;22.41;47.42;97772.13;5106785;28;19963;-62
2023/06/10 08:20:33;;;;;;;;;;;;;;;22.34;47.54;97766.59;5107499;28;19947;-62
2023/06/10 08:23:03;;;;;;;;;;;;;;;22.51;47.44;97764.25;5084375;28;19920;-61
2023/06/10 08:25:32;;;;;;;;;;;;;;;22.86;46.27;97767.03;5092551;28;19920;-61
2023/06/10 08:27:59;;;;;;;;;;;;;;;22.81;46.20;97761.13;5093506;28;19924;-64
2023/06/10 08:30:28;;;;;;;;;;;;;;;22.87;45.65;97757.53;5091028;28;19928;-61
2023/06/10 08:32:56;;;;;;;;;;;;;;;22.78;47.03;97757.13;5095052;28;20937;-61
2023/06/10 08:35:24;;;;;;;;;;;;;;;22.88;46.52;97756.38;5084845;28;20018;-61
2023/06/10 08:37:52;;;;;;;;;;;;;;;22.79;46.12;97753.19;5086678;28;19966;-61
2023/06/10 08:40:21;;;;;;;;;;;;;;;23.05;45.97;97760.31;5106453;28;19920;-61
2023/06/10 08:42:50;;;;;;;;;;;;;;;23.07;46.79;97746.88;5090449;28;19920;-63
2023/06/10 08:45:18;;;;;;;;;;;;;;;23.39;44.89;97763.44;5078459;28;20023;-62
2023/06/10 08:47:46;;;;;;;;;;;;;;;23.16;45.82;97760.31;5093975;28;19951;-61
2023/06/10 08:50:14;;;;;;;;;;;;;;;23.41;44.52;97754.72;5087606;28;19921;-62
2023/06/10 08:52:43;;;;;;;;;;;;;;;23.33;45.10;97753.97;5086636;28;19945;-61
2023/06/10 08:55:12;;;;;;;;;;;;;;;23.24;45.22;97762.69;5091101;28;19943;-61
2023/06/10 08:57:41;;;;;;;;;;;;;;;23.26;44.21;97754.75;5090363;28;20034;-61
2023/06/10 09:00:09;;;;;;;;;;;;;;;23.24;43.52;97750.81;5080691;28;19946;-61
2023/06/10 09:02:37;;;;;;;;;;;;;;;23.20;43.76;97756.34;5072956;28;19921;-59
2023/06/10 09:05:06;;;;;;;;;;;;;;;23.47;42.68;97747.56;5086779;28;19927;-59
2023/06/10 09:07:34;;;;;;;;;;;;;;;23.45;43.97;97750.75;5093590;28;20361;-58
2023/06/10 09:10:03;;;;;;;;;;;;;;;23.39;44.20;97760.69;5083085;28;19924;-59
2023/06/10 09:12:31;;;;;;;;;;;;;;;23.48;43.82;97754.69;5091319;28;20246;-59
2023/06/10 09:15:00;;;;;;;;;;;;;;;23.41;43.80;97761.06;5083748;28;19920;-60
2023/06/10 09:17:30;;;;;;;;;;;;;;;23.38;43.75;97750.75;5087108;28;19920;-59
2023/06/10 09:19:58;;;;;;;;;;;;;;;23.35;44.03;97756.31;5100192;28;19954;-59
2023/06/10 09:22:26;;;;;;;;;;;;;;;23.44;43.65;97749.19;5110081;28;19924;-59
2023/06/10 09:25:03;;;;;;;;;;;;;;;23.39;43.34;97763.44;5094570;28;19921;-59
2023/06/10 09:27:31;;;;;;;;;;;;;;;23.65;42.71;97751.13;5105790;28;19927;-59
2023/06/10 09:30:00;;;;;;;;;;;;;;;23.63;43.53;97755.47;5089658;28;20369;-59
2023/06/10 09:32:30;;;;;;;;;;;;;;;23.76;44.86;97745.53;5085319;28;20010;-59
2023/06/10 09:34:57;;;;;;;;;;;;;;;23.96;42.23;97754.94;5107105;28;19920;-61
2023/06/10 09:37:25;;;;;;;;;;;;;;;23.93;43.21;97764.06;5094982;28;19927;-60
2023/06/10 09:40:04;;;;;;;;;;;;;;;23.83;43.44;97759.38;5072297;28;19975;-59
2023/06/10 09:42:35;;;;;;;;;;;;;;;23.98;42.73;97749.78;5077220;28;19960;-59
2023/06/10 09:45:05;;;;;;;;;;;;;;;23.96;43.16;97763.25;5079553;28;19927;-65
2023/06/10 09:47:33;;;;;;;;;;;;;;;23.96;42.95;97760.47;5087001;28;19924;-59
2023/06/10 09:50:01;;;;;;;;;;;;;;;24.00;43.96;97766.03;5093086;28;20250;-59
2023/06/10 09:52:30;;;;;;;;;;;;;;;23.90;43.92;97758.53;5100210;28;19927;-60
2023/06/10 09:55:00;;;;;;;;;;;;;;;23.89;43.87;97759.72;5081339;28;20434;-57
2023/06/10 09:57:33;;;;;;;;;;;;;;;23.92;43.00;97754.19;5093767;28;19920;-58
2023/06/10 10:00:07;;;;;;;;;;;;;;;24.02;42.35;97750.56;5087474;28;20011;-60
2023/06/10 10:02:44;;;;;;;;;;;;;;;24.09;43.07;97754.50;5086451;28;19924;-58
2023/06/10 10:05:13;;;;;;;;;;;;;;;24.15;43.02;97758.41;5091678;28;20017;-58
2023/06/10 10:07:41;;;;;;;;;;;;;;;23.98;43.71;97749.78;5074148;28;19920;-59
2023/06/10 10:10:10;;;;;;;;;;;;;;;24.13;43.71;97749.69;5090315;28;20363;-59
2023/06/10 10:12:39;;;;;;;;;;;;;;;24.14;42.91;97742.97;5091198;28;20350;-58
2023/06/10 10:15:09;;;;;;;;;;;;;;;24.30;42.00;97748.81;5082789;28;20323;-58
2023/06/10 10:17:38;;;;;;;;;;;;;;;24.06;43.10;97744.97;5090326;28;20951;-58
2023/06/10 10:20:06;;;;;;;;;;;;;;;24.15;43.28;97742.56;5084210;28;19920;-58
2023/06/10 10:22:35;;;;;;;;;;;;;;;23.98;43.21;97741.47;5077645;28;19966;-58
2023/06/10 10:25:04;;;;;;;;;;;;;;;24.04;42.99;97752.94;5081179;28;20383;-57
2023/06/10 10:27:41;;;;;;;;;;;;;;;23.88;43.49;97742.31;5102387;28;19943;-58
2023/06/10 10:30:11;;;;;;;;;;;;;;;23.72;41.63;97740.00;5089163;28;19959;-58
2023/06/10 10:32:39;;;;;;;;;;;;;;;23.70;41.97;97739.63;5084223;28;20293;-58
2023/06/10 10:35:09;;;;;;;;;;;;;;;23.61;42.59;97741.19;5080901;28;20254;-61
2023/06/10 10:37:37;;;;;;;;;;;;;;;23.82;42.72;97732.03;5094140;28;19927;-59
2023/06/10 10:40:05;;;;;;;;;;;;;;;24.01;43.19;97737.84;5094564;28;20384;-58
2023/06/10 10:42:33;;;;;;;;;;;;;;;24.14;42.40;97740.19;5107363;28;19926;-59
2023/06/10 10:45:01;;;;;;;;;;;;;;;24.05;42.93;97737.84;5092294;28;19927;-57
2023/06/10 10:47:30;;;;;;;;;;;;;;;24.08;43.41;97736.25;5081655;28;19923;-58
2023/06/10 10:49:59;;;;;;;;;;;;;;;24.07;43.49;97743.00;5094336;28;19932;-58
2023/06/10 10:52:47;;;;;;;;;;;;;;;23.95;42.25;97738.69;5087723;28;20154;-58
2023/06/10 10:55:15;;;;;;;;;;;;;;;23.88;42.92;97742.31;5091159;28;20795;-59
2023/06/10 10:57:42;;;;;;;;;;;;;;;23.82;43.51;97746.69;5093762;28;19959;-58
2023/06/10 11:00:13;;;;;;;;;;;;;;;24.08;43.13;97755.69;5087306;28;19927;-58
2023/06/10 11:02:43;;;;;;;;;;;;;;;23.89;43.13;97745.88;5089484;28;20003;-62
2023/06/10 11:05:12;;;;;;;;;;;;;;;23.80;44.27;97746.28;5090541;28;19928;-61
2023/06/10 11:07:40;;;;;;;;;;;;;;;23.72;44.14;97742.75;5095824;28;20410;-64
2023/06/10 11:10:09;;;;;;;;;;;;;;;23.88;44.65;97736.75;5096998;28;19973;-59
2023/06/10 11:12:55;;;;;;;;;;;;;;;23.97;44.89;97741.84;5096028;28;19975;-59
2023/06/10 11:15:24;;;;;;;;;;;;;;;24.05;44.55;97730.31;5080224;28;20009;-58
2023/06/10 11:18:09;;;;;;;;;;;;;;;24.02;45.25;97745.00;5093569;28;19920;-59
2023/06/10 11:20:53;;;;;;;;;;;;;;;24.01;45.28;97732.31;5087380;28;19957;-58
2023/06/10 11:23:34;;;;;;;;;;;;;;;23.91;44.07;97746.25;5091420;28;20357;-58
2023/06/10 11:26:19;;;;;;;;;;;;;;;24.09;44.15;97748.94;5091546;28;19927;-58
2023/06/10 11:29:07;;;;;;;;;;;;;;;24.19;43.71;97742.53;5092802;28;20369;-58
2023/06/10 11:31:37;;;;;;;;;;;;;;;24.28;43.31;97728.97;5086230;28;19927;-58
2023/06/10 11:34:06;;;;;;;;;;;;;;;24.39;43.39;97732.50;5091911;28;19920;-60
2023/06/10 11:36:34;;;;;;;;;;;;;;;24.53;42.54;97740.75;5085136;28;19920;-58
2023/06/10 11:39:05;;;;;;;;;;;;;;;24.71;41.74;97732.25;5091602;28;19920;-58
2023/06/10 11:41:33;;;;;;;;;;;;;;;24.91;40.61;97732.50;5107354;28;20285;-59
2023/06/10 11:44:02;;;;;;;;;;;;;;;24.77;40.86;97721.53;5073734;28;19920;-59
2023/06/10 11:46:29;;;;;;;;;;;;;;;24.91;40.40;97720.59;5087343;28;19920;-58
2023/06/10 11:48:58;;;;;;;;;;;;;;;24.83;41.00;97731.00;5089466;28;20377;-60
2023/06/10 11:51:28;;;;;;;;;;;;;;;24.82;40.99;97726.59;5092168;28;19973;-59
2023/06/10 11:53:56;;;;;;;;;;;;;;;24.69;40.84;97717.22;5082865;28;19924;-59
2023/06/10 11:56:25;;;;;;;;;;;;;;;24.61;41.18;97722.06;5091930;28;20320;-59
2023/06/10 11:58:53;;;;;;;;;;;;;;;24.56;41.67;97719.72;5082677;28;19925;-58
2023/06/10 12:01:22;;;;;;;;;;;;;;;24.55;42.60;97724.47;5077689;28;20429;-59
2023/06/10 12:03:59;;;;;;;;;;;;;;;24.53;42.78;97726.84;5084909;28;19981;-59
2023/06/10 12:06:28;;;;;;;;;;;;;;;24.64;42.50;97726.78;5088488;28;19920;-59
2023/06/10 12:08:56;;;;;;;;;;;;;;;24.78;41.11;97723.88;5073796;28;19984;-59
2023/06/10 12:11:34;;;;;;;;;;;;;;;24.81;41.61;97725.03;5091668;28;19921;-58
2023/06/10 12:14:03;;;;;;;;;;;;;;;24.90;40.69;97722.59;5089405;28;20338;-59
2023/06/10 12:16:31;;;;;;;;;;;;;;;25.00;41.25;97720.91;5098510;28;20003;-58
2023/06/10 12:19:02;;;;;;;;;;;;;;;24.94;40.30;97709.44;5091177;28;20312;-64
2023/06/10 12:21:32;;;;;;;;;;;;;;;25.07;40.81;97718.88;5072737;28;19920;-58
2023/06/10 12:24:07;;;;;;;;;;;;;;;25.12;41.47;97716.84;5086820;28;20293;-61
2023/06/10 12:26:36;;;;;;;;;;;;;;;25.18;41.73;97712.41;5081989;28;19920;-59
2023/06/10 12:29:12;;;;;;;;;;;;;;;25.12;40.38;97708.50;5091529;28;19970;-58
2023/06/10 12:31:53;;;;;;;;;;;;;;;25.17;41.09;97699.72;5077495;28;20373;-58
2023/06/10 12:34:21;;;;;;;;;;;;;;;25.33;40.96;97702.72;5085580;28;19927;-59
2023/06/10 12:36:52;;;;;;;;;;;;;;;25.45;40.82;97695.81;5090858;28;20366;-59
2023/06/10 12:39:21;;;;;;;;;;;;;;;25.56;39.75;97694.50;5089990;28;19959;-59
2023/06/10 12:41:49;;;;;;;;;;;;;;;25.59;39.93;97690.88;5091206;28;20007;-58
2023/06/10 12:44:17;;;;;;;;;;;;;;;25.63;39.92;97684.50;5091184;28;19924;-60
2023/06/10 12:46:45;;;;;;;;;;;;;;;25.74;40.76;97693.50;5082044;28;19977;-58
2023/06/10 12:49:19;;;;;;;;;;;;;;;25.76;38.33;97691.88;5089621;28;20375;-59
2023/06/10 12:51:47;;;;;;;;;;;;;;;25.64;38.03;97691.63;5087469;28;19927;-59
2023/06/10 12:54:17;;;;;;;;;;;;;;;25.54;38.78;97691.34;5079350;28;20424;-58
2023/06/10 12:56:45;;;;;;;;;;;;;;;25.39;39.21;97692.72;5106670;28;20698;-59
2023/06/10 12:59:14;;;;;;;;;;;;;;;25.43;40.43;97689.91;5085790;28;19920;-60